Time;durP1;ratioP1;P1;durP2;ratioP2;P2;SDS_P1;SDS_P2;PMS_P1;PMS_P2;Temp;Humidity;BMP_temperature;BMP_pressure;BME280_temperature;BME280_humidity;BME280_pressure;Samples;Min_cycle;Max_cycle;Signal;HPM_P1;HPM_P2
2021/12/09 00:00:43;;;;;;;5.35;2.10;;;20.30;51.60;;;;;;5018242;28;20052;-60
2021/12/09 00:03:10;;;;;;;5.43;2.33;;;20.30;51.60;;;;;;5035858;28;20045;-60
2021/12/09 00:05:36;;;;;;;5.32;2.08;;;20.30;51.50;;;;;;5016982;28;20045;-60
2021/12/09 00:08:03;;;;;;;4.45;2.40;;;20.30;51.50;;;;;;5035572;28;20501;-60
2021/12/09 00:10:29;;;;;;;5.10;1.80;;;20.30;51.50;;;;;;5035901;28;20121;-60
2021/12/09 00:12:54;;;;;;;6.07;2.13;;;20.30;51.50;;;;;;5034725;28;20133;-60
2021/12/09 00:15:20;;;;;;;4.32;2.00;;;20.30;51.40;;;;;;5035348;28;20042;-60
2021/12/09 00:17:45;;;;;;;5.40;1.90;;;20.30;51.50;;;;;;5035631;28;20037;-60
2021/12/09 00:20:12;;;;;;;4.00;2.05;;;20.30;51.50;;;;;;5035048;28;20052;-60
2021/12/09 00:22:37;;;;;;;4.60;2.10;;;20.20;51.40;;;;;;5035270;28;20485;-60
2021/12/09 00:25:03;;;;;;;4.47;2.22;;;20.20;51.30;;;;;;5035212;28;20044;-60
2021/12/09 00:27:29;;;;;;;4.20;1.77;;;20.20;52.00;;;;;;5034625;28;20057;-60
2021/12/09 00:29:54;;;;;;;4.18;1.83;;;20.20;51.30;;;;;;5034767;28;20508;-60
2021/12/09 00:32:21;;;;;;;5.82;2.20;;;20.20;51.30;;;;;;5035593;28;20045;-60
2021/12/09 00:34:49;;;;;;;7.65;2.25;;;20.10;51.30;;;;;;5034352;28;20119;-60
2021/12/09 00:37:30;;;;;;;5.20;2.00;;;20.10;51.10;;;;;;5035187;28;20057;-60
2021/12/09 00:39:56;;;;;;;5.13;2.00;;;20.10;51.20;;;;;;5016471;28;20042;-60
2021/12/09 00:42:22;;;;;;;4.78;2.30;;;20.10;51.90;;;;;;5035354;28;20051;-60
2021/12/09 00:44:49;;;;;;;3.92;1.70;;;20.10;51.20;;;;;;5034022;28;20485;-60
2021/12/09 00:47:15;;;;;;;6.32;1.75;;;20.10;51.20;;;;;;5016592;28;20045;-60
2021/12/09 00:49:41;;;;;;;4.82;2.03;;;20.10;51.20;;;;;;5034553;28;20049;-60
2021/12/09 00:52:06;;;;;;;3.95;1.90;;;20.00;51.10;;;;;;5034908;28;20507;-60
2021/12/09 00:54:32;;;;;;;4.72;1.92;;;20.10;51.20;;;;;;5034347;28;20045;-60
2021/12/09 00:56:58;;;;;;;4.30;2.00;;;20.00;51.00;;;;;;5034360;28;20049;-60
2021/12/09 00:59:23;;;;;;;5.93;1.75;;;20.10;51.10;;;;;;5035025;28;20046;-60
2021/12/09 01:01:49;;;;;;;4.43;2.00;;;20.00;51.80;;;;;;5033671;28;20049;-60
2021/12/09 01:04:14;;;;;;;5.53;1.90;;;20.00;51.00;;;;;;5034815;28;20129;-60
2021/12/09 01:06:40;;;;;;;7.10;2.00;;;20.00;51.00;;;;;;5034613;28;20045;-60
2021/12/09 01:09:05;;;;;;;3.88;1.77;;;20.00;51.00;;;;;;5034236;28;20073;-60
2021/12/09 01:11:31;;;;;;;5.25;1.83;;;20.00;51.00;;;;;;5034716;28;20123;-60
2021/12/09 01:13:56;;;;;;;3.55;1.80;;;20.00;51.00;;;;;;5034271;28;20045;-60
2021/12/09 01:16:22;;;;;;;4.72;2.00;;;20.00;51.00;;;;;;5016116;28;20508;-60
2021/12/09 01:18:48;;;;;;;4.07;1.65;;;20.00;51.00;;;;;;5034144;28;20460;-60
2021/12/09 01:21:13;;;;;;;3.42;1.80;;;19.90;50.90;;;;;;5034474;28;20056;-60
2021/12/09 01:23:40;;;;;;;4.20;2.03;;;19.90;50.90;;;;;;5015940;28;20045;-60
2021/12/09 01:26:06;;;;;;;4.55;2.00;;;19.90;50.90;;;;;;5034100;28;20561;-60
2021/12/09 01:28:40;;;;;;;5.10;2.10;;;19.90;50.80;;;;;;5034535;28;20045;-60
2021/12/09 01:31:07;;;;;;;3.40;1.50;;;19.90;50.80;;;;;;5033693;28;20131;-60
2021/12/09 01:33:33;;;;;;;4.18;1.75;;;19.90;50.90;;;;;;5034270;28;20112;-60
2021/12/09 01:35:58;;;;;;;4.88;1.88;;;19.80;50.80;;;;;;5032981;28;20049;-60
2021/12/09 01:38:27;;;;;;;3.35;1.80;;;19.80;50.80;;;;;;5034370;28;20392;-60
2021/12/09 01:40:53;;;;;;;3.97;2.03;;;19.80;50.70;;;;;;5033545;28;20057;-60
2021/12/09 01:43:19;;;;;;;3.58;1.70;;;19.80;50.80;;;;;;5015576;28;20041;-60
2021/12/09 01:45:44;;;;;;;4.05;1.80;;;19.80;50.80;;;;;;5033711;28;20132;-60
2021/12/09 01:48:10;;;;;;;3.20;1.60;;;19.80;50.80;;;;;;5033954;28;20045;-60
2021/12/09 01:50:35;;;;;;;3.88;1.50;;;19.80;50.80;;;;;;5032755;28;20081;-60
2021/12/09 01:53:02;;;;;;;4.22;1.80;;;19.80;50.80;;;;;;5033500;28;20045;-60
2021/12/09 01:55:28;;;;;;;3.65;1.63;;;19.80;50.80;;;;;;5033521;28;20057;-60
2021/12/09 01:57:53;;;;;;;5.68;2.10;;;19.80;50.70;;;;;;5015245;28;20046;-60
2021/12/09 02:00:21;;;;;;;4.15;1.30;;;19.80;50.70;;;;;;5015928;28;20099;-60
2021/12/09 02:02:47;;;;;;;4.85;1.80;;;19.80;50.70;;;;;;5033054;28;20497;-60
2021/12/09 02:05:13;;;;;;;3.13;1.55;;;19.80;50.70;;;;;;5015102;28;20048;-60
2021/12/09 02:07:39;;;;;;;4.13;1.83;;;19.80;50.70;;;;;;5033167;28;20045;-60
2021/12/09 02:10:05;;;;;;;3.72;1.30;;;19.80;50.70;;;;;;5015469;28;20140;-60
2021/12/09 02:12:30;;;;;;;4.53;1.85;;;19.70;50.60;;;;;;5032898;28;20208;-60
2021/12/09 02:14:59;;;;;;;4.60;1.90;;;19.70;50.60;;;;;;5032833;28;20132;-60
2021/12/09 02:17:27;;;;;;;3.00;1.58;;;19.70;50.50;;;;;;5033564;28;20045;-60
2021/12/09 02:19:52;;;;;;;4.57;1.85;;;19.70;50.50;;;;;;5032502;28;20049;-60
2021/12/09 02:22:18;;;;;;;3.25;1.50;;;19.70;50.50;;;;;;5015473;28;20045;-60
2021/12/09 02:24:43;;;;;;;2.92;1.58;;;19.70;50.50;;;;;;5032984;28;20045;-60
2021/12/09 02:27:09;;;;;;;3.92;1.88;;;19.70;50.40;;;;;;5032560;28;20401;-60
2021/12/09 02:29:36;;;;;;;5.80;1.70;;;19.70;50.40;;;;;;5033096;28;20041;-60
2021/12/09 02:32:02;;;;;;;5.13;1.43;;;19.70;50.50;;;;;;5032060;28;20374;-60
2021/12/09 02:34:28;;;;;;;2.72;1.38;;;19.70;50.50;;;;;;5015790;28;20346;-60
2021/12/09 02:36:54;;;;;;;3.42;1.77;;;19.70;50.50;;;;;;5032459;28;20366;-60
2021/12/09 02:39:20;;;;;;;4.30;1.30;;;19.70;50.40;;;;;;5032530;28;20050;-60
2021/12/09 02:41:46;;;;;;;3.95;1.38;;;19.70;50.40;;;;;;5032718;28;20045;-60
2021/12/09 02:44:14;;;;;;;4.30;1.48;;;19.70;50.50;;;;;;5033004;28;20396;-60
2021/12/09 02:46:40;;;;;;;3.53;1.55;;;19.70;50.30;;;;;;5032495;28;20069;-60
2021/12/09 02:49:13;;;;;;;3.15;1.50;;;19.70;50.30;;;;;;5032877;28;20099;-60
2021/12/09 02:51:39;;;;;;;2.85;1.50;;;19.70;50.30;;;;;;5032541;28;20045;-60
2021/12/09 02:54:05;;;;;;;3.80;1.50;;;19.70;50.30;;;;;;5014204;28;20041;-60
2021/12/09 02:56:31;;;;;;;2.95;1.30;;;19.70;50.30;;;;;;5032872;28;20131;-60
2021/12/09 02:58:56;;;;;;;3.90;1.77;;;19.70;50.30;;;;;;5032334;28;20096;-60
2021/12/09 03:01:25;;;;;;;2.70;1.38;;;19.70;50.30;;;;;;5020834;28;20061;-60
2021/12/09 03:03:55;;;;;;;2.78;1.10;;;19.80;50.30;;;;;;5011008;28;20402;-60
2021/12/09 03:06:25;;;;;;;3.55;1.30;;;19.70;50.20;;;;;;5010675;28;20077;-60
2021/12/09 03:08:51;;;;;;;2.80;1.27;;;19.80;50.20;;;;;;4993868;28;20042;-60
2021/12/09 03:11:19;;;;;;;3.80;1.50;;;19.80;50.20;;;;;;5012991;28;20038;-60
2021/12/09 03:13:45;;;;;;;4.00;1.45;;;19.80;50.20;;;;;;5012290;28;20486;-60
2021/12/09 03:16:10;;;;;;;4.13;1.55;;;19.80;50.10;;;;;;5011751;28;20045;-60
2021/12/09 03:18:45;;;;;;;4.25;1.80;;;19.80;50.10;;;;;;4995074;28;20046;-60
2021/12/09 03:21:21;;;;;;;3.60;1.38;;;19.80;50.00;;;;;;4995104;28;20124;-60
2021/12/09 03:23:47;;;;;;;3.35;1.55;;;19.80;50.10;;;;;;4994974;28;20042;-60
2021/12/09 03:26:13;;;;;;;2.38;1.13;;;19.80;50.00;;;;;;5012843;28;20133;-61
2021/12/09 03:28:38;;;;;;;2.42;1.27;;;19.80;50.00;;;;;;5012184;28;20045;-60
2021/12/09 03:31:04;;;;;;;3.20;1.42;;;19.80;50.00;;;;;;5012261;28;20045;-60
2021/12/09 03:33:29;;;;;;;4.55;1.40;;;19.80;50.00;;;;;;5012585;28;20046;-61
2021/12/09 03:35:59;;;;;;;3.63;1.58;;;19.90;50.00;;;;;;5011422;28;20046;-60
2021/12/09 03:38:25;;;;;;;2.90;1.42;;;19.90;50.00;;;;;;5012959;28;20048;-60
2021/12/09 03:40:50;;;;;;;3.72;1.17;;;19.90;50.00;;;;;;4994983;28;20062;-60
2021/12/09 03:43:16;;;;;;;3.58;1.70;;;19.80;50.00;;;;;;5012046;28;20046;-60
2021/12/09 03:45:41;;;;;;;3.33;1.33;;;19.90;50.00;;;;;;5012162;28;20073;-60
2021/12/09 03:48:07;;;;;;;3.60;1.40;;;19.90;50.00;;;;;;5012729;28;20042;-60
2021/12/09 03:50:33;;;;;;;3.35;1.50;;;19.90;50.00;;;;;;5011998;28;20045;-60
2021/12/09 03:52:58;;;;;;;3.13;1.45;;;19.90;50.00;;;;;;4994569;28;20038;-60
2021/12/09 03:55:24;;;;;;;3.42;1.63;;;19.90;50.00;;;;;;5012638;28;20050;-60
2021/12/09 03:57:49;;;;;;;3.60;1.40;;;19.90;49.90;;;;;;4994072;28;20097;-60
2021/12/09 04:00:15;;;;;;;5.30;1.77;;;19.90;49.90;;;;;;5012301;28;20089;-60
2021/12/09 04:02:41;;;;;;;2.42;1.25;;;19.90;49.90;;;;;;4994401;28;20107;-61
2021/12/09 04:05:07;;;;;;;2.80;1.40;;;19.90;49.80;;;;;;5011813;28;20057;-61
2021/12/09 04:07:33;;;;;;;2.13;1.15;;;19.90;49.80;;;;;;5012578;28;20069;-60
2021/12/09 04:09:59;;;;;;;3.63;1.60;;;19.90;49.70;;;;;;5012140;28;20073;-60
2021/12/09 04:12:24;;;;;;;2.40;1.23;;;20.00;49.80;;;;;;5011497;28;20042;-60
2021/12/09 04:14:50;;;;;;;2.65;1.30;;;19.90;49.70;;;;;;4994505;28;20080;-61
2021/12/09 04:17:15;;;;;;;3.13;1.20;;;20.00;49.80;;;;;;5012466;28;20045;-60
2021/12/09 04:19:47;;;;;;;3.22;1.35;;;20.00;49.70;;;;;;5012225;28;20048;-60
2021/12/09 04:22:14;;;;;;;2.33;1.30;;;20.00;49.70;;;;;;5015829;28;20077;-60
2021/12/09 04:24:39;;;;;;;2.83;1.42;;;20.00;49.70;;;;;;5014946;28;20056;-60
2021/12/09 04:27:05;;;;;;;3.85;1.50;;;20.00;49.70;;;;;;5015681;28;20041;-60
2021/12/09 04:29:30;;;;;;;2.72;1.30;;;20.00;49.70;;;;;;5015819;28;20056;-60
2021/12/09 04:31:56;;;;;;;2.70;1.20;;;20.00;49.60;;;;;;5014712;28;20418;-60
2021/12/09 04:34:21;;;;;;;4.05;1.50;;;20.00;49.60;;;;;;5015712;28;20045;-60
2021/12/09 04:36:47;;;;;;;3.22;1.35;;;20.00;49.60;;;;;;4997532;28;20054;-60
2021/12/09 04:39:12;;;;;;;3.50;1.40;;;20.00;49.50;;;;;;5014958;28;20046;-60
2021/12/09 04:41:38;;;;;;;4.18;1.50;;;20.00;49.50;;;;;;5015768;28;20049;-60
2021/12/09 04:44:04;;;;;;;3.08;1.35;;;20.00;49.50;;;;;;5014932;28;20125;-60
2021/12/09 04:46:30;;;;;;;2.50;1.00;;;20.00;49.50;;;;;;5014904;28;20038;-61
2021/12/09 04:48:56;;;;;;;4.10;1.50;;;20.00;49.40;;;;;;5014987;28;20119;-60
2021/12/09 04:51:22;;;;;;;3.40;1.40;;;20.00;49.50;;;;;;5015469;28;20053;-60
2021/12/09 04:53:47;;;;;;;3.67;1.23;;;20.00;49.50;;;;;;5014247;28;20049;-60
2021/12/09 04:56:13;;;;;;;2.85;1.20;;;20.00;49.40;;;;;;4997488;28;20100;-60
2021/12/09 04:58:38;;;;;;;3.95;1.38;;;20.10;49.50;;;;;;5015282;28;20042;-60
2021/12/09 05:01:05;;;;;;;2.72;1.30;;;20.00;49.40;;;;;;5013232;28;20058;-60
2021/12/09 05:03:31;;;;;;;3.17;1.20;;;20.00;49.30;;;;;;4997431;28;20050;-60
2021/12/09 05:05:56;;;;;;;3.10;1.55;;;20.10;49.40;;;;;;5012851;28;20148;-60
2021/12/09 05:08:24;;;;;;;1.90;1.00;;;20.10;49.30;;;;;;5013142;28;20084;-60
2021/12/09 05:11:26;;;;;;;2.17;1.08;;;20.10;49.30;;;;;;5014669;28;20069;-60
2021/12/09 05:13:38;;;;;;;2.83;1.13;;;20.10;49.30;;;;;;5014147;28;20046;-60
2021/12/09 05:16:04;;;;;;;5.25;1.67;;;20.10;49.30;;;;;;4995925;28;20398;-60
2021/12/09 05:18:32;;;;;;;3.15;1.08;;;20.10;49.30;;;;;;5015000;28;20069;-60
2021/12/09 05:20:58;;;;;;;3.20;1.08;;;20.10;49.30;;;;;;4995920;28;20112;-60
2021/12/09 05:23:23;;;;;;;2.67;1.05;;;20.10;49.20;;;;;;5014643;28;20501;-60
2021/12/09 05:25:49;;;;;;;2.97;1.17;;;20.10;49.20;;;;;;5014172;28;20046;-60
2021/12/09 05:28:16;;;;;;;3.85;1.40;;;20.10;49.20;;;;;;5014078;28;20045;-60
2021/12/09 05:33:33;;;;;;;2.30;1.08;;;20.10;49.10;;;;;;4996929;28;20046;-60
2021/12/09 05:35:58;;;;;;;2.25;1.20;;;20.10;49.10;;;;;;5013131;28;20048;-60
2021/12/09 05:38:24;;;;;;;2.67;1.15;;;20.10;49.10;;;;;;5014549;28;20042;-60
2021/12/09 05:40:49;;;;;;;3.53;1.25;;;20.10;49.10;;;;;;5013907;28;20402;-60
2021/12/09 05:43:15;;;;;;;3.28;1.20;;;20.10;49.10;;;;;;5013552;28;20478;-60
2021/12/09 05:45:41;;;;;;;2.28;1.13;;;20.10;49.10;;;;;;5013956;28;20092;-61
2021/12/09 05:48:08;;;;;;;2.35;1.20;;;20.10;49.10;;;;;;5014169;28;20509;-61
2021/12/09 05:50:34;;;;;;;2.00;1.15;;;20.10;49.00;;;;;;5013551;28;20054;-61
2021/12/09 05:52:59;;;;;;;2.40;1.23;;;20.10;49.00;;;;;;5013502;28;20049;-60
2021/12/09 05:55:26;;;;;;;4.07;1.38;;;20.10;49.00;;;;;;5013829;28;20073;-60
2021/12/09 05:57:51;;;;;;;2.90;1.30;;;20.20;49.00;;;;;;5013150;28;20050;-60
2021/12/09 06:00:17;;;;;;;1.60;0.93;;;20.20;49.00;;;;;;4996616;28;20045;-60
2021/12/09 06:02:43;;;;;;;2.42;1.10;;;20.20;49.00;;;;;;5013252;28;20405;-61
2021/12/09 06:05:08;;;;;;;2.50;1.10;;;20.20;48.90;;;;;;4995355;28;20057;-60
2021/12/09 06:07:34;;;;;;;2.08;1.02;;;20.20;48.90;;;;;;5013555;28;20045;-61
2021/12/09 06:10:02;;;;;;;3.20;1.10;;;20.20;48.80;;;;;;5013359;28;20045;-61
2021/12/09 06:12:28;;;;;;;2.53;1.08;;;20.20;48.80;;;;;;5013480;28;20141;-60
2021/12/09 06:14:53;;;;;;;3.03;1.08;;;20.20;48.80;;;;;;5013199;28;20453;-61
2021/12/09 06:17:19;;;;;;;3.55;1.50;;;20.20;48.80;;;;;;5013073;28;20050;-61
2021/12/09 06:19:44;;;;;;;2.75;1.10;;;20.20;48.80;;;;;;5013170;28;20151;-60
2021/12/09 06:22:10;;;;;;;2.25;1.30;;;20.20;48.80;;;;;;5013241;28;20060;-61
2021/12/09 06:24:35;;;;;;;3.78;1.35;;;20.20;48.80;;;;;;5013022;28;20045;-61
2021/12/09 06:27:03;;;;;;;2.97;1.15;;;20.20;48.70;;;;;;5013349;28;20084;-61
2021/12/09 06:29:28;;;;;;;2.88;1.20;;;20.20;48.80;;;;;;4995849;28;20056;-61
2021/12/09 06:31:54;;;;;;;2.78;1.17;;;20.20;48.70;;;;;;5012574;28;20042;-61
2021/12/09 06:34:19;;;;;;;4.80;1.60;;;20.20;48.70;;;;;;4995541;28;20042;-61
2021/12/09 06:36:45;;;;;;;2.53;1.00;;;20.20;48.70;;;;;;5012901;28;20050;-60
2021/12/09 06:39:12;;;;;;;2.28;1.10;;;20.20;48.70;;;;;;5012836;28;20081;-61
2021/12/09 06:41:38;;;;;;;4.43;1.80;;;20.20;48.60;;;;;;5012902;28;20053;-60
2021/12/09 06:44:04;;;;;;;2.90;1.40;;;20.20;48.60;;;;;;4995265;28;20052;-61
2021/12/09 06:46:29;;;;;;;3.97;1.45;;;20.20;48.60;;;;;;5012493;28;20042;-60
2021/12/09 06:48:55;;;;;;;1.80;1.20;;;20.20;48.60;;;;;;5012962;28;20100;-61
2021/12/09 06:51:20;;;;;;;2.55;1.10;;;20.20;48.50;;;;;;5012982;28;20049;-61
2021/12/09 06:53:46;;;;;;;3.17;1.17;;;20.30;48.60;;;;;;4994412;28;20124;-61
2021/12/09 06:56:11;;;;;;;3.03;1.20;;;20.20;48.50;;;;;;5012982;28;20056;-61
2021/12/09 06:58:37;;;;;;;3.13;1.10;;;20.20;48.50;;;;;;5013210;28;20367;-61
2021/12/09 07:01:03;;;;;;;2.83;1.20;;;20.20;48.50;;;;;;5011958;28;20045;-61
2021/12/09 07:03:28;;;;;;;3.40;1.40;;;20.20;48.50;;;;;;5012788;28;20068;-61
2021/12/09 07:05:54;;;;;;;3.05;1.38;;;20.20;48.50;;;;;;5012323;28;20041;-61
2021/12/09 07:08:20;;;;;;;4.43;1.60;;;20.20;48.50;;;;;;5012094;28;20469;-61
2021/12/09 07:10:46;;;;;;;4.28;1.33;;;20.20;48.40;;;;;;5012598;28;20069;-61
2021/12/09 07:13:11;;;;;;;4.40;1.38;;;20.30;48.50;;;;;;5013117;28;20445;-61
2021/12/09 07:15:37;;;;;;;3.22;1.35;;;20.20;48.50;;;;;;5012191;28;20084;-61
2021/12/09 07:18:03;;;;;;;3.28;1.10;;;20.30;48.50;;;;;;5012616;28;20046;-60
2021/12/09 07:20:28;;;;;;;2.47;1.10;;;20.30;48.50;;;;;;5012274;28;20049;-62
2021/12/09 07:22:54;;;;;;;5.10;1.10;;;20.30;48.50;;;;;;5012622;28;20049;-61
2021/12/09 07:25:21;;;;;;;2.35;1.20;;;20.30;48.50;;;;;;5012816;28;20096;-61
2021/12/09 07:27:46;;;;;;;4.80;1.50;;;20.30;48.50;;;;;;5011934;28;20042;-62
2021/12/09 07:30:13;;;;;;;2.83;1.13;;;20.30;48.40;;;;;;5012938;28;20371;-62
2021/12/09 07:32:38;;;;;;;4.32;1.20;;;20.30;48.40;;;;;;5012589;28;20430;-62
2021/12/09 07:35:04;;;;;;;4.50;1.30;;;20.30;48.40;;;;;;5011637;28;20096;-62
2021/12/09 07:37:30;;;;;;;4.47;1.25;;;20.30;48.50;;;;;;4994900;28;20512;-62
2021/12/09 07:39:56;;;;;;;2.78;1.20;;;20.30;48.40;;;;;;5012390;28;20137;-62
2021/12/09 07:42:21;;;;;;;3.40;1.33;;;20.30;48.40;;;;;;4994719;28;20046;-62
2021/12/09 07:44:47;;;;;;;4.68;1.40;;;20.30;49.20;;;;;;5012212;28;20479;-62
2021/12/09 07:47:12;;;;;;;3.05;1.20;;;20.30;48.50;;;;;;4995326;28;20046;-62
2021/12/09 07:49:38;;;;;;;4.78;1.23;;;20.30;48.50;;;;;;5014479;28;20398;-61
2021/12/09 07:52:04;;;;;;;3.47;1.15;;;20.30;48.60;;;;;;5020997;28;20183;-61
2021/12/09 07:54:31;;;;;;;4.78;1.23;;;20.30;48.60;;;;;;5026475;28;20037;-61
2021/12/09 07:56:56;;;;;;;4.30;1.40;;;20.30;48.90;;;;;;5030366;28;20045;-61
2021/12/09 07:59:22;;;;;;;3.72;1.23;;;20.30;49.20;;;;;;5029455;28;20397;-61
2021/12/09 08:01:48;;;;;;;5.03;1.23;;;20.30;49.30;;;;;;5007150;28;20057;-60
2021/12/09 08:04:14;;;;;;;5.00;1.30;;;20.30;49.30;;;;;;5028906;28;20052;-61
2021/12/09 08:06:39;;;;;;;3.05;1.52;;;20.30;49.30;;;;;;5019296;28;20049;-61
2021/12/09 08:09:05;;;;;;;4.07;1.40;;;20.30;49.40;;;;;;5015379;28;20042;-61
2021/12/09 08:11:33;;;;;;;5.32;1.42;;;20.30;49.50;;;;;;5015091;28;20058;-62
2021/12/09 08:13:59;;;;;;;4.32;1.60;;;20.30;49.50;;;;;;4998039;28;20054;-62
2021/12/09 08:16:24;;;;;;;4.38;1.55;;;20.30;49.60;;;;;;4998002;28;20406;-61
2021/12/09 08:18:56;;;;;;;5.68;1.73;;;20.40;49.80;;;;;;4997104;28;20044;-62
2021/12/09 08:21:26;;;;;;;3.83;1.40;;;20.40;49.80;;;;;;4998233;28;20050;-62
2021/12/09 08:23:52;;;;;;;3.17;1.50;;;20.40;50.00;;;;;;5014916;28;20141;-62
2021/12/09 08:26:18;;;;;;;5.25;1.45;;;20.40;50.00;;;;;;5005303;28;20128;-63
2021/12/09 08:28:43;;;;;;;4.47;1.38;;;20.40;50.10;;;;;;5023666;28;20469;-63
2021/12/09 08:31:09;;;;;;;4.80;1.45;;;20.40;50.10;;;;;;5000585;28;20123;-62
2021/12/09 08:33:34;;;;;;;4.32;1.30;;;20.40;50.10;;;;;;5015723;28;20046;-62
2021/12/09 08:36:00;;;;;;;4.75;1.40;;;20.40;50.10;;;;;;5015103;28;20926;-62
2021/12/09 08:38:25;;;;;;;6.65;1.60;;;20.50;50.10;;;;;;5016627;28;20399;-62
2021/12/09 08:40:52;;;;;;;3.60;1.45;;;20.50;50.10;;;;;;5017434;28;20108;-61
2021/12/09 08:43:19;;;;;;;4.97;1.48;;;20.50;50.10;;;;;;5015285;28;20050;-62
2021/12/09 08:45:45;;;;;;;4.45;1.25;;;20.50;50.10;;;;;;5004790;28;20049;-61
2021/12/09 08:48:10;;;;;;;4.10;1.10;;;20.50;50.10;;;;;;5002127;28;20038;-61
2021/12/09 08:50:36;;;;;;;6.22;1.50;;;20.50;50.10;;;;;;5015159;28;20050;-62
2021/12/09 08:53:04;;;;;;;4.65;1.40;;;20.50;50.20;;;;;;5013992;28;20046;-61
2021/12/09 08:55:30;;;;;;;4.00;1.50;;;20.50;50.20;;;;;;5015152;28;20042;-61
2021/12/09 08:57:56;;;;;;;3.35;1.50;;;20.50;50.20;;;;;;4997263;28;20053;-61
2021/12/09 09:00:22;;;;;;;5.55;1.40;;;20.50;50.30;;;;;;5021162;28;20041;-61
2021/12/09 09:02:50;;;;;;;3.22;1.50;;;20.50;50.40;;;;;;5007875;28;20061;-62
2021/12/09 09:05:15;;;;;;;4.18;1.35;;;20.60;50.40;;;;;;5028017;28;20068;-62
2021/12/09 09:07:41;;;;;;;4.88;1.50;;;20.60;50.50;;;;;;5015739;28;20402;-62
2021/12/09 09:10:08;;;;;;;4.43;1.25;;;20.60;50.40;;;;;;5008396;28;20485;-62
2021/12/09 09:12:34;;;;;;;5.28;1.35;;;20.60;50.40;;;;;;5024990;28;20033;-62
2021/12/09 09:15:00;;;;;;;4.00;1.33;;;20.60;50.40;;;;;;5023128;28;20045;-62
2021/12/09 09:17:26;;;;;;;2.53;1.10;;;20.60;50.50;;;;;;5007995;28;20132;-62
2021/12/09 09:19:52;;;;;;;3.00;1.50;;;20.70;50.50;;;;;;5016331;28;20128;-62
2021/12/09 09:22:17;;;;;;;4.38;1.60;;;20.70;50.60;;;;;;5031675;28;20046;-62
2021/12/09 09:24:43;;;;;;;4.25;1.30;;;20.70;50.60;;;;;;5032609;28;20076;-63
2021/12/09 09:27:08;;;;;;;3.90;1.70;;;20.70;50.60;;;;;;5023564;28;20053;-63
2021/12/09 09:29:37;;;;;;;4.03;1.27;;;20.70;50.70;;;;;;5034177;28;20184;-61
2021/12/09 09:32:04;;;;;;;5.20;1.40;;;20.70;50.60;;;;;;5034051;28;20128;-63
2021/12/09 09:34:30;;;;;;;3.65;1.30;;;20.70;50.60;;;;;;5033224;28;20465;-63
2021/12/09 09:36:55;;;;;;;3.45;1.30;;;20.70;50.60;;;;;;5033838;28;20077;-62
2021/12/09 09:39:23;;;;;;;4.05;1.30;;;20.70;50.70;;;;;;5032938;28;20128;-62
2021/12/09 09:42:18;;;;;;;8.30;1.48;;;20.70;50.70;;;;;;5031889;28;20103;-62
2021/12/09 09:44:54;;;;;;;3.45;1.00;;;20.70;50.70;;;;;;5032474;28;20398;-62
2021/12/09 09:47:24;;;;;;;3.58;1.08;;;20.70;50.30;;;;;;5032647;28;20470;-62
2021/12/09 09:49:50;;;;;;;5.68;1.48;;;20.70;50.20;;;;;;5033424;28;20137;-63
2021/12/09 09:52:15;;;;;;;4.00;1.27;;;20.70;50.20;;;;;;5032378;28;20132;-62
2021/12/09 09:54:41;;;;;;;4.57;1.30;;;20.80;50.40;;;;;;5033421;28;20064;-62
2021/12/09 09:57:08;;;;;;;3.00;1.27;;;20.80;50.60;;;;;;5033022;28;20049;-62
2021/12/09 09:59:33;;;;;;;3.47;1.35;;;20.80;50.60;;;;;;5033895;28;20116;-61
2021/12/09 10:01:59;;;;;;;3.90;1.10;;;20.80;50.60;;;;;;5033182;28;20573;-62
2021/12/09 10:07:21;;;;;;;3.58;1.10;;;20.80;50.70;;;;;;5017649;28;20046;-62
2021/12/09 10:09:47;;;;;;;4.72;1.38;;;20.80;50.80;;;;;;5032507;28;20061;-63
2021/12/09 10:12:12;;;;;;;1.95;0.93;;;20.80;50.80;;;;;;5030955;28;20064;-62
2021/12/09 10:14:38;;;;;;;3.88;1.20;;;20.80;50.80;;;;;;5025006;28;20489;-63
2021/12/09 10:17:12;;;;;;;6.05;1.10;;;20.80;50.80;;;;;;5041741;28;20410;-62
2021/12/09 10:19:48;;;;;;;3.80;1.25;;;20.80;50.80;;;;;;5033487;28;20076;-63
2021/12/09 10:22:16;;;;;;;5.55;1.33;;;20.80;50.90;;;;;;5032097;28;20061;-63
2021/12/09 10:24:42;;;;;;;3.30;1.00;;;20.80;50.90;;;;;;5030942;28;20075;-63
2021/12/09 10:27:13;;;;;;;3.42;1.25;;;20.80;50.80;;;;;;5021870;28;20050;-63
2021/12/09 10:29:40;;;;;;;5.63;1.10;;;20.80;50.90;;;;;;5013315;28;20034;-63
2021/12/09 10:32:09;;;;;;;4.40;1.00;;;20.80;50.70;;;;;;5012566;28;20100;-61
2021/12/09 10:34:42;;;;;;;3.83;1.02;;;20.80;50.60;;;;;;5011893;28;20401;-62
2021/12/09 10:37:14;;;;;;;4.28;1.50;;;20.80;50.70;;;;;;5011878;28;20045;-62
2021/12/09 10:39:55;;;;;;;4.13;1.30;;;20.80;50.70;;;;;;5012565;28;20046;-63
2021/12/09 10:42:32;;;;;;;5.43;1.50;;;20.90;51.00;;;;;;5011975;28;20046;-64
2021/12/09 10:45:08;;;;;;;4.05;1.35;;;20.80;51.20;;;;;;5015999;28;20046;-63
2021/12/09 10:50:12;;;;;;;5.43;1.45;;;20.90;51.20;;;;;;5020329;28;20510;-63
2021/12/09 10:52:45;;;;;;;6.70;2.00;;;20.90;51.30;;;;;;5022754;28;20041;-62
2021/12/09 10:55:14;;;;;;;5.05;1.52;;;20.90;51.30;;;;;;5023401;28;20050;-62
2021/12/09 10:57:39;;;;;;;;;;;20.90;51.30;;;;;;5021862;28;20436;-62
2021/12/09 11:00:21;;;;;;;4.63;1.63;;;20.90;51.20;;;;;;5021544;28;19927;-62
2021/12/09 11:03:18;;;;;;;2.95;1.50;;;20.90;51.30;;;;;;5020569;28;20045;-62
2021/12/09 11:06:07;;;;;;;6.88;1.60;;;20.90;51.20;;;;;;5011312;28;20079;-62
2021/12/09 11:08:43;;;;;;;4.68;1.73;;;20.90;51.30;;;;;;5026588;28;20041;-62
2021/12/09 11:11:17;;;;;;;5.88;1.65;;;20.90;51.30;;;;;;5026459;28;20045;-62
2021/12/09 11:13:49;;;;;;;5.63;1.35;;;20.90;51.40;;;;;;5024322;28;20087;-62
2021/12/09 11:16:39;;;;;;;4.22;1.73;;;20.90;51.30;;;;;;5017465;28;20041;-61
2021/12/09 11:19:10;;;;;;;3.75;1.10;;;20.90;51.40;;;;;;5011218;28;20038;-61
2021/12/09 11:21:40;;;;;;;5.50;1.40;;;20.90;51.40;;;;;;5019796;28;20096;-61
2021/12/09 11:24:09;;;;;;;5.10;1.67;;;20.90;51.40;;;;;;5012381;28;20513;-61
2021/12/09 11:26:54;;;;;;;3.75;1.20;;;20.90;51.40;;;;;;5012102;28;20088;-61
2021/12/09 11:29:34;;;;;;;5.30;1.60;;;20.90;51.40;;;;;;5020464;28;20119;-61
2021/12/09 11:34:37;;;;;;;5.35;1.27;;;20.90;51.30;;;;;;5023551;28;20049;-61
2021/12/09 11:37:21;;;;;;;4.32;1.40;;;20.90;51.30;;;;;;5026876;28;20132;-61
2021/12/09 11:39:48;;;;;;;4.68;1.50;;;20.90;51.20;;;;;;5036040;28;20049;-61
2021/12/09 11:42:30;;;;;;;4.45;1.65;;;20.90;51.20;;;;;;5035874;28;20045;-61
2021/12/09 11:44:55;;;;;;;3.50;1.30;;;20.90;51.00;;;;;;5036096;28;20525;-62
2021/12/09 11:47:21;;;;;;;4.25;1.70;;;21.00;51.10;;;;;;5036170;28;20137;-61
2021/12/09 11:49:47;;;;;;;2.75;1.40;;;20.90;51.00;;;;;;5035232;28;20049;-61
2021/12/09 11:52:13;;;;;;;3.33;1.30;;;20.90;51.00;;;;;;5036268;28;20037;-61
2021/12/09 11:54:39;;;;;;;4.28;1.48;;;20.90;51.00;;;;;;5032002;28;20523;-62
2021/12/09 11:57:28;;;;;;;4.05;1.30;;;20.90;50.90;;;;;;5024330;28;20055;-61
2021/12/09 12:11:32;;;;;;;4.35;1.45;;;20.90;50.50;;;;;;5020766;28;20046;-61
2021/12/09 12:14:16;;;;;;;5.75;1.30;;;20.90;50.50;;;;;;5021470;28;20053;-63
2021/12/09 12:16:58;;;;;;;4.00;1.40;;;20.90;50.50;;;;;;5024448;28;20033;-62
2021/12/09 12:19:55;;;;;;;3.33;1.45;;;20.90;50.60;;;;;;5023042;28;20507;-61
2021/12/09 12:34:38;;;;;;;5.00;1.30;;;20.90;51.00;;;;;;5023781;28;20042;-61
2021/12/09 12:39:30;;;;;;;4.22;1.25;;;20.90;50.80;;;;;;5032603;28;20041;-62
2021/12/09 12:42:09;;;;;;;6.07;1.10;;;20.90;50.70;;;;;;5026169;28;20046;-62
2021/12/09 12:44:35;;;;;;;5.85;1.55;;;20.90;50.60;;;;;;5025455;28;20111;-62
2021/12/09 12:47:15;;;;;;;3.90;1.35;;;20.90;50.60;;;;;;5025737;28;20079;-62
2021/12/09 12:49:47;;;;;;;4.35;1.52;;;20.90;50.60;;;;;;5027083;28;20121;-62
2021/12/09 12:52:20;;;;;;;5.22;1.45;;;20.90;50.60;;;;;;5024280;28;20515;-62
2021/12/09 12:57:27;;;;;;;2.90;0.90;;;20.90;50.60;;;;;;5027935;28;20064;-64
2021/12/09 13:00:03;;;;;;;2.80;1.20;;;20.90;50.60;;;;;;5034267;28;20042;-63
2021/12/09 13:05:44;;;;;;;4.30;1.10;;;20.90;50.40;;;;;;5019025;28;20526;-62
2021/12/09 13:08:29;;;;;;;4.05;1.13;;;20.90;50.30;;;;;;5033735;28;20053;-62
2021/12/09 13:13:31;;;;;;;4.10;0.98;;;20.90;50.20;;;;;;5033881;28;20058;-62
2021/12/09 13:16:28;;;;;;;8.57;1.30;;;20.90;50.20;;;;;;5034699;28;20045;-62
2021/12/09 13:19:05;;;;;;;4.60;1.15;;;20.90;50.20;;;;;;5034332;28;20474;-62
2021/12/09 13:21:37;;;;;;;4.50;1.33;;;20.90;50.20;;;;;;5034751;28;20049;-62
2021/12/09 13:24:55;;;;;;;3.47;1.25;;;20.90;50.10;;;;;;5034419;28;20041;-62
2021/12/09 13:30:38;;;;;;;4.30;1.33;;;20.90;50.00;;;;;;5034402;28;20370;-62
2021/12/09 13:47:16;;;;;;;3.20;1.20;;;20.90;50.00;;;;;;5032581;28;20045;-62
2021/12/09 13:49:59;;;;;;;3.90;1.10;;;20.90;49.90;;;;;;5033939;28;20156;-62
2021/12/09 13:55:19;;;;;;;2.95;1.10;;;20.90;49.90;;;;;;5031952;28;20053;-62
2021/12/09 13:57:46;;;;;;;3.47;1.20;;;20.90;49.90;;;;;;5032387;28;20120;-62